sensor_id;sensor_type;location;lat;lon;timestamp;P1;durP1;ratioP1;P2;durP2;ratioP2
75772;SDS011;64381;0.000;0.000;2024-02-14T00:00:51;4.13;;;2.07;;
75772;SDS011;64381;0.000;0.000;2024-02-14T00:03:16;4.00;;;1.90;;
75772;SDS011;64381;0.000;0.000;2024-02-14T00:05:41;4.00;;;2.00;;
75772;SDS011;64381;0.000;0.000;2024-02-14T00:08:07;3.90;;;1.80;;
75772;SDS011;64381;0.000;0.000;2024-02-14T00:10:32;4.57;;;2.10;;
75772;SDS011;64381;0.000;0.000;2024-02-14T00:12:57;4.23;;;2.00;;
75772;SDS011;64381;0.000;0.000;2024-02-14T00:15:22;4.17;;;1.87;;
75772;SDS011;64381;0.000;0.000;2024-02-14T00:17:48;3.57;;;1.90;;
75772;SDS011;64381;0.000;0.000;2024-02-14T00:20:13;4.20;;;2.00;;
75772;SDS011;64381;0.000;0.000;2024-02-14T00:22:38;4.40;;;1.90;;
75772;SDS011;64381;0.000;0.000;2024-02-14T00:25:04;3.93;;;2.00;;
75772;SDS011;64381;0.000;0.000;2024-02-14T00:27:29;3.78;;;1.80;;
75772;SDS011;64381;0.000;0.000;2024-02-14T00:29:54;4.27;;;1.80;;
75772;SDS011;64381;0.000;0.000;2024-02-14T00:32:20;4.40;;;2.13;;
75772;SDS011;64381;0.000;0.000;2024-02-14T00:34:45;5.23;;;1.83;;
75772;SDS011;64381;0.000;0.000;2024-02-14T00:37:10;4.57;;;2.00;;
75772;SDS011;64381;0.000;0.000;2024-02-14T00:39:35;4.47;;;1.90;;
75772;SDS011;64381;0.000;0.000;2024-02-14T00:42:01;4.67;;;1.93;;
75772;SDS011;64381;0.000;0.000;2024-02-14T00:44:26;4.97;;;2.00;;
75772;SDS011;64381;0.000;0.000;2024-02-14T00:46:58;3.97;;;1.90;;
75772;SDS011;64381;0.000;0.000;2024-02-14T00:49:23;3.95;;;1.95;;
75772;SDS011;64381;0.000;0.000;2024-02-14T00:51:48;3.77;;;1.87;;
75772;SDS011;64381;0.000;0.000;2024-02-14T00:54:14;4.90;;;1.83;;
75772;SDS011;64381;0.000;0.000;2024-02-14T00:56:39;3.70;;;2.00;;
75772;SDS011;64381;0.000;0.000;2024-02-14T00:59:04;3.80;;;1.60;;
75772;SDS011;64381;0.000;0.000;2024-02-14T01:01:29;3.83;;;1.80;;
75772;SDS011;64381;0.000;0.000;2024-02-14T01:03:54;4.37;;;1.90;;
75772;SDS011;64381;0.000;0.000;2024-02-14T01:06:20;5.57;;;2.03;;
75772;SDS011;64381;0.000;0.000;2024-02-14T01:08:45;4.20;;;1.70;;
75772;SDS011;64381;0.000;0.000;2024-02-14T01:11:10;3.93;;;1.80;;
75772;SDS011;64381;0.000;0.000;2024-02-14T01:13:35;4.03;;;1.70;;
75772;SDS011;64381;0.000;0.000;2024-02-14T01:16:02;4.07;;;1.70;;
75772;SDS011;64381;0.000;0.000;2024-02-14T01:18:27;4.40;;;1.80;;
75772;SDS011;64381;0.000;0.000;2024-02-14T01:20:53;5.00;;;2.10;;
75772;SDS011;64381;0.000;0.000;2024-02-14T01:23:18;4.33;;;2.10;;
75772;SDS011;64381;0.000;0.000;2024-02-14T01:25:43;4.10;;;1.87;;
75772;SDS011;64381;0.000;0.000;2024-02-14T01:28:08;3.93;;;1.80;;
75772;SDS011;64381;0.000;0.000;2024-02-14T01:30:34;4.80;;;1.90;;
75772;SDS011;64381;0.000;0.000;2024-02-14T01:32:59;4.22;;;1.83;;
75772;SDS011;64381;0.000;0.000;2024-02-14T01:35:25;4.60;;;1.73;;
75772;SDS011;64381;0.000;0.000;2024-02-14T01:37:50;3.83;;;1.87;;
75772;SDS011;64381;0.000;0.000;2024-02-14T01:40:15;3.67;;;1.63;;
75772;SDS011;64381;0.000;0.000;2024-02-14T01:42:40;3.90;;;1.73;;
75772;SDS011;64381;0.000;0.000;2024-02-14T01:45:06;4.00;;;1.90;;
75772;SDS011;64381;0.000;0.000;2024-02-14T01:47:31;3.78;;;1.60;;
75772;SDS011;64381;0.000;0.000;2024-02-14T01:49:57;4.43;;;2.07;;
75772;SDS011;64381;0.000;0.000;2024-02-14T01:52:22;5.37;;;1.90;;
75772;SDS011;64381;0.000;0.000;2024-02-14T01:54:48;5.67;;;1.70;;
75772;SDS011;64381;0.000;0.000;2024-02-14T01:57:14;3.60;;;1.67;;
75772;SDS011;64381;0.000;0.000;2024-02-14T01:59:39;3.53;;;1.70;;
75772;SDS011;64381;0.000;0.000;2024-02-14T02:02:05;4.77;;;1.80;;
75772;SDS011;64381;0.000;0.000;2024-02-14T02:04:30;3.63;;;1.70;;
75772;SDS011;64381;0.000;0.000;2024-02-14T02:06:55;4.20;;;1.65;;
75772;SDS011;64381;0.000;0.000;2024-02-14T02:09:20;4.23;;;1.70;;
75772;SDS011;64381;0.000;0.000;2024-02-14T02:11:46;3.50;;;1.57;;
75772;SDS011;64381;0.000;0.000;2024-02-14T02:14:12;5.00;;;1.90;;
75772;SDS011;64381;0.000;0.000;2024-02-14T02:16:38;3.60;;;1.70;;
75772;SDS011;64381;0.000;0.000;2024-02-14T02:19:03;3.70;;;1.70;;
75772;SDS011;64381;0.000;0.000;2024-02-14T02:21:28;4.32;;;1.70;;
75772;SDS011;64381;0.000;0.000;2024-02-14T02:23:53;4.93;;;1.80;;
75772;SDS011;64381;0.000;0.000;2024-02-14T02:26:19;3.70;;;1.67;;
75772;SDS011;64381;0.000;0.000;2024-02-14T02:28:44;4.53;;;1.60;;
75772;SDS011;64381;0.000;0.000;2024-02-14T02:31:09;4.20;;;1.60;;
75772;SDS011;64381;0.000;0.000;2024-02-14T02:33:34;3.50;;;1.50;;
75772;SDS011;64381;0.000;0.000;2024-02-14T02:35:59;4.03;;;1.53;;
75772;SDS011;64381;0.000;0.000;2024-02-14T02:38:25;4.43;;;1.80;;
75772;SDS011;64381;0.000;0.000;2024-02-14T02:40:50;4.30;;;1.70;;
75772;SDS011;64381;0.000;0.000;2024-02-14T02:43:15;4.43;;;1.70;;
75772;SDS011;64381;0.000;0.000;2024-02-14T02:45:40;4.07;;;1.57;;
75772;SDS011;64381;0.000;0.000;2024-02-14T02:48:06;3.77;;;1.57;;
75772;SDS011;64381;0.000;0.000;2024-02-14T02:50:31;3.73;;;1.53;;
75772;SDS011;64381;0.000;0.000;2024-02-14T02:52:56;3.80;;;1.60;;
75772;SDS011;64381;0.000;0.000;2024-02-14T02:55:22;4.00;;;1.73;;
75772;SDS011;64381;0.000;0.000;2024-02-14T02:57:47;4.37;;;2.00;;
75772;SDS011;64381;0.000;0.000;2024-02-14T03:00:13;3.90;;;1.85;;
75772;SDS011;64381;0.000;0.000;2024-02-14T03:02:38;3.90;;;1.73;;
75772;SDS011;64381;0.000;0.000;2024-02-14T03:05:04;3.53;;;1.43;;
75772;SDS011;64381;0.000;0.000;2024-02-14T03:07:29;3.63;;;1.67;;
75772;SDS011;64381;0.000;0.000;2024-02-14T03:09:54;4.30;;;1.93;;
75772;SDS011;64381;0.000;0.000;2024-02-14T03:12:20;3.60;;;1.70;;
75772;SDS011;64381;0.000;0.000;2024-02-14T03:14:45;3.67;;;1.60;;
75772;SDS011;64381;0.000;0.000;2024-02-14T03:17:10;3.87;;;1.60;;
75772;SDS011;64381;0.000;0.000;2024-02-14T03:19:35;3.83;;;1.50;;
75772;SDS011;64381;0.000;0.000;2024-02-14T03:22:01;5.17;;;1.83;;
75772;SDS011;64381;0.000;0.000;2024-02-14T03:24:26;3.93;;;1.70;;
75772;SDS011;64381;0.000;0.000;2024-02-14T03:26:51;4.13;;;1.50;;
75772;SDS011;64381;0.000;0.000;2024-02-14T03:29:17;5.20;;;1.70;;
75772;SDS011;64381;0.000;0.000;2024-02-14T03:31:42;4.35;;;1.70;;
75772;SDS011;64381;0.000;0.000;2024-02-14T03:34:08;3.90;;;1.57;;
75772;SDS011;64381;0.000;0.000;2024-02-14T03:36:33;4.60;;;1.70;;
75772;SDS011;64381;0.000;0.000;2024-02-14T03:38:58;4.03;;;1.70;;
75772;SDS011;64381;0.000;0.000;2024-02-14T03:41:24;4.72;;;1.70;;
75772;SDS011;64381;0.000;0.000;2024-02-14T03:43:50;3.47;;;1.50;;
75772;SDS011;64381;0.000;0.000;2024-02-14T03:46:15;3.93;;;1.40;;
75772;SDS011;64381;0.000;0.000;2024-02-14T03:48:43;3.90;;;1.60;;
75772;SDS011;64381;0.000;0.000;2024-02-14T03:51:08;3.55;;;1.60;;
75772;SDS011;64381;0.000;0.000;2024-02-14T03:53:33;3.60;;;1.63;;
75772;SDS011;64381;0.000;0.000;2024-02-14T03:55:59;4.20;;;1.80;;
75772;SDS011;64381;0.000;0.000;2024-02-14T03:58:24;3.37;;;1.60;;
75772;SDS011;64381;0.000;0.000;2024-02-14T04:00:49;4.00;;;1.50;;
75772;SDS011;64381;0.000;0.000;2024-02-14T04:03:15;4.60;;;1.60;;
75772;SDS011;64381;0.000;0.000;2024-02-14T04:05:40;3.90;;;1.60;;
75772;SDS011;64381;0.000;0.000;2024-02-14T04:08:05;4.23;;;1.60;;
75772;SDS011;64381;0.000;0.000;2024-02-14T04:10:30;4.57;;;1.80;;
75772;SDS011;64381;0.000;0.000;2024-02-14T04:12:56;4.43;;;1.50;;
75772;SDS011;64381;0.000;0.000;2024-02-14T04:15:21;3.60;;;1.50;;
75772;SDS011;64381;0.000;0.000;2024-02-14T04:17:47;3.30;;;1.50;;
75772;SDS011;64381;0.000;0.000;2024-02-14T04:20:12;3.63;;;1.60;;
75772;SDS011;64381;0.000;0.000;2024-02-14T04:22:37;3.97;;;1.50;;
75772;SDS011;64381;0.000;0.000;2024-02-14T04:25:03;4.53;;;1.60;;
75772;SDS011;64381;0.000;0.000;2024-02-14T04:27:28;4.05;;;1.45;;
75772;SDS011;64381;0.000;0.000;2024-02-14T04:29:54;4.07;;;1.40;;
75772;SDS011;64381;0.000;0.000;2024-02-14T04:32:19;4.00;;;1.50;;
75772;SDS011;64381;0.000;0.000;2024-02-14T04:34:44;4.50;;;1.57;;
75772;SDS011;64381;0.000;0.000;2024-02-14T04:37:09;3.10;;;1.30;;
75772;SDS011;64381;0.000;0.000;2024-02-14T04:39:34;3.23;;;1.67;;
75772;SDS011;64381;0.000;0.000;2024-02-14T04:42:00;3.50;;;1.50;;
75772;SDS011;64381;0.000;0.000;2024-02-14T04:44:25;3.83;;;1.63;;
75772;SDS011;64381;0.000;0.000;2024-02-14T04:46:50;3.80;;;1.60;;
75772;SDS011;64381;0.000;0.000;2024-02-14T04:49:15;3.40;;;1.40;;
75772;SDS011;64381;0.000;0.000;2024-02-14T04:51:40;4.67;;;1.50;;
75772;SDS011;64381;0.000;0.000;2024-02-14T04:54:06;3.93;;;1.40;;
75772;SDS011;64381;0.000;0.000;2024-02-14T04:56:31;4.10;;;1.87;;
75772;SDS011;64381;0.000;0.000;2024-02-14T04:58:56;3.57;;;1.40;;
75772;SDS011;64381;0.000;0.000;2024-02-14T05:01:21;3.20;;;1.60;;
75772;SDS011;64381;0.000;0.000;2024-02-14T05:03:47;3.83;;;1.43;;
75772;SDS011;64381;0.000;0.000;2024-02-14T05:06:12;3.83;;;1.50;;
75772;SDS011;64381;0.000;0.000;2024-02-14T05:08:37;4.03;;;1.50;;
75772;SDS011;64381;0.000;0.000;2024-02-14T05:11:03;3.33;;;1.50;;
75772;SDS011;64381;0.000;0.000;2024-02-14T05:13:28;3.20;;;1.47;;
75772;SDS011;64381;0.000;0.000;2024-02-14T05:15:53;3.90;;;1.50;;
75772;SDS011;64381;0.000;0.000;2024-02-14T05:18:18;3.70;;;1.50;;
75772;SDS011;64381;0.000;0.000;2024-02-14T05:20:43;3.00;;;1.40;;
75772;SDS011;64381;0.000;0.000;2024-02-14T05:23:09;3.43;;;1.40;;
75772;SDS011;64381;0.000;0.000;2024-02-14T05:25:34;4.43;;;1.50;;
75772;SDS011;64381;0.000;0.000;2024-02-14T05:27:59;3.80;;;1.57;;
75772;SDS011;64381;0.000;0.000;2024-02-14T05:30:25;2.80;;;1.20;;
75772;SDS011;64381;0.000;0.000;2024-02-14T05:32:51;4.05;;;1.50;;
75772;SDS011;64381;0.000;0.000;2024-02-14T05:35:16;3.23;;;1.20;;
75772;SDS011;64381;0.000;0.000;2024-02-14T05:37:42;3.13;;;1.40;;
75772;SDS011;64381;0.000;0.000;2024-02-14T05:40:07;3.33;;;1.40;;
75772;SDS011;64381;0.000;0.000;2024-02-14T05:42:33;3.88;;;1.50;;
75772;SDS011;64381;0.000;0.000;2024-02-14T05:44:58;3.40;;;1.50;;
75772;SDS011;64381;0.000;0.000;2024-02-14T05:47:23;3.57;;;1.33;;
75772;SDS011;64381;0.000;0.000;2024-02-14T05:49:48;3.70;;;1.40;;
75772;SDS011;64381;0.000;0.000;2024-02-14T05:52:13;3.53;;;1.47;;
75772;SDS011;64381;0.000;0.000;2024-02-14T05:54:39;3.37;;;1.40;;
75772;SDS011;64381;0.000;0.000;2024-02-14T05:57:04;3.33;;;1.40;;
75772;SDS011;64381;0.000;0.000;2024-02-14T05:59:29;3.87;;;1.40;;
75772;SDS011;64381;0.000;0.000;2024-02-14T06:01:55;3.17;;;1.33;;
75772;SDS011;64381;0.000;0.000;2024-02-14T06:04:20;3.63;;;1.40;;
75772;SDS011;64381;0.000;0.000;2024-02-14T06:06:45;3.37;;;1.37;;
75772;SDS011;64381;0.000;0.000;2024-02-14T06:09:10;3.40;;;1.20;;
75772;SDS011;64381;0.000;0.000;2024-02-14T06:11:36;3.30;;;1.40;;
75772;SDS011;64381;0.000;0.000;2024-02-14T06:14:01;3.25;;;1.25;;
75772;SDS011;64381;0.000;0.000;2024-02-14T06:16:26;3.23;;;1.40;;
75772;SDS011;64381;0.000;0.000;2024-02-14T06:18:52;3.57;;;1.30;;
75772;SDS011;64381;0.000;0.000;2024-02-14T06:21:17;3.43;;;1.40;;
75772;SDS011;64381;0.000;0.000;2024-02-14T06:23:42;2.90;;;1.20;;
75772;SDS011;64381;0.000;0.000;2024-02-14T06:26:07;3.30;;;1.47;;
75772;SDS011;64381;0.000;0.000;2024-02-14T06:28:32;3.50;;;1.40;;
75772;SDS011;64381;0.000;0.000;2024-02-14T06:30:58;4.07;;;1.63;;
75772;SDS011;64381;0.000;0.000;2024-02-14T06:33:23;3.20;;;1.40;;
75772;SDS011;64381;0.000;0.000;2024-02-14T06:35:48;3.83;;;1.43;;
75772;SDS011;64381;0.000;0.000;2024-02-14T06:38:13;3.63;;;1.40;;
75772;SDS011;64381;0.000;0.000;2024-02-14T06:40:38;3.90;;;1.20;;
75772;SDS011;64381;0.000;0.000;2024-02-14T06:43:04;3.67;;;1.30;;
75772;SDS011;64381;0.000;0.000;2024-02-14T06:45:29;3.73;;;1.37;;
75772;SDS011;64381;0.000;0.000;2024-02-14T06:47:54;3.07;;;1.40;;
75772;SDS011;64381;0.000;0.000;2024-02-14T06:50:20;3.77;;;1.27;;
75772;SDS011;64381;0.000;0.000;2024-02-14T06:52:45;4.37;;;1.47;;
75772;SDS011;64381;0.000;0.000;2024-02-14T06:55:10;3.57;;;1.20;;
75772;SDS011;64381;0.000;0.000;2024-02-14T06:57:35;3.97;;;1.70;;
75772;SDS011;64381;0.000;0.000;2024-02-14T07:00:01;3.50;;;1.30;;
75772;SDS011;64381;0.000;0.000;2024-02-14T07:02:27;3.00;;;1.30;;
75772;SDS011;64381;0.000;0.000;2024-02-14T07:04:52;3.20;;;1.37;;
75772;SDS011;64381;0.000;0.000;2024-02-14T07:07:17;3.10;;;1.50;;
75772;SDS011;64381;0.000;0.000;2024-02-14T07:09:43;3.77;;;1.13;;
75772;SDS011;64381;0.000;0.000;2024-02-14T07:12:08;3.63;;;1.37;;
75772;SDS011;64381;0.000;0.000;2024-02-14T07:14:33;3.10;;;1.30;;
75772;SDS011;64381;0.000;0.000;2024-02-14T07:16:58;4.07;;;1.30;;
75772;SDS011;64381;0.000;0.000;2024-02-14T07:19:23;3.23;;;1.40;;
75772;SDS011;64381;0.000;0.000;2024-02-14T07:21:49;3.43;;;1.50;;
75772;SDS011;64381;0.000;0.000;2024-02-14T07:24:14;3.37;;;1.30;;
75772;SDS011;64381;0.000;0.000;2024-02-14T07:26:39;4.33;;;1.63;;
75772;SDS011;64381;0.000;0.000;2024-02-14T07:29:04;3.70;;;1.43;;
75772;SDS011;64381;0.000;0.000;2024-02-14T07:31:29;2.80;;;1.33;;
75772;SDS011;64381;0.000;0.000;2024-02-14T07:33:55;3.13;;;1.43;;
75772;SDS011;64381;0.000;0.000;2024-02-14T07:36:20;3.97;;;1.40;;
75772;SDS011;64381;0.000;0.000;2024-02-14T07:38:45;3.33;;;1.40;;
75772;SDS011;64381;0.000;0.000;2024-02-14T07:41:10;3.03;;;1.30;;
75772;SDS011;64381;0.000;0.000;2024-02-14T07:43:35;2.97;;;1.20;;
75772;SDS011;64381;0.000;0.000;2024-02-14T07:46:01;3.60;;;1.50;;
75772;SDS011;64381;0.000;0.000;2024-02-14T07:48:26;3.23;;;1.33;;
75772;SDS011;64381;0.000;0.000;2024-02-14T07:50:52;4.43;;;1.55;;
75772;SDS011;64381;0.000;0.000;2024-02-14T07:53:17;3.17;;;1.40;;
75772;SDS011;64381;0.000;0.000;2024-02-14T07:55:42;3.47;;;1.30;;
75772;SDS011;64381;0.000;0.000;2024-02-14T07:58:07;3.00;;;1.20;;
75772;SDS011;64381;0.000;0.000;2024-02-14T08:00:32;2.70;;;1.10;;
75772;SDS011;64381;0.000;0.000;2024-02-14T08:02:58;3.50;;;1.30;;
75772;SDS011;64381;0.000;0.000;2024-02-14T08:05:23;2.77;;;1.10;;
75772;SDS011;64381;0.000;0.000;2024-02-14T08:07:48;3.47;;;1.40;;
75772;SDS011;64381;0.000;0.000;2024-02-14T08:10:14;3.57;;;1.53;;
75772;SDS011;64381;0.000;0.000;2024-02-14T08:12:39;3.17;;;1.33;;
75772;SDS011;64381;0.000;0.000;2024-02-14T08:15:04;2.97;;;1.30;;
75772;SDS011;64381;0.000;0.000;2024-02-14T08:17:39;2.85;;;1.13;;
75772;SDS011;64381;0.000;0.000;2024-02-14T08:20:04;3.22;;;1.38;;
75772;SDS011;64381;0.000;0.000;2024-02-14T08:22:30;2.90;;;1.20;;
75772;SDS011;64381;0.000;0.000;2024-02-14T08:24:56;3.13;;;1.30;;
75772;SDS011;64381;0.000;0.000;2024-02-14T08:27:21;3.20;;;1.30;;
75772;SDS011;64381;0.000;0.000;2024-02-14T08:29:49;3.27;;;1.10;;
75772;SDS011;64381;0.000;0.000;2024-02-14T08:32:15;2.78;;;1.10;;
75772;SDS011;64381;0.000;0.000;2024-02-14T08:34:49;3.37;;;1.20;;
75772;SDS011;64381;0.000;0.000;2024-02-14T08:37:17;2.92;;;1.10;;
75772;SDS011;64381;0.000;0.000;2024-02-14T08:39:45;3.33;;;1.15;;
75772;SDS011;64381;0.000;0.000;2024-02-14T08:42:11;3.28;;;1.20;;
75772;SDS011;64381;0.000;0.000;2024-02-14T08:44:45;3.40;;;1.50;;
75772;SDS011;64381;0.000;0.000;2024-02-14T08:47:10;3.27;;;1.30;;
75772;SDS011;64381;0.000;0.000;2024-02-14T08:49:36;3.00;;;1.00;;
75772;SDS011;64381;0.000;0.000;2024-02-14T08:52:01;3.40;;;1.30;;
75772;SDS011;64381;0.000;0.000;2024-02-14T08:54:29;3.17;;;1.20;;
75772;SDS011;64381;0.000;0.000;2024-02-14T08:56:54;3.20;;;1.20;;
75772;SDS011;64381;0.000;0.000;2024-02-14T08:59:19;2.87;;;1.10;;
75772;SDS011;64381;0.000;0.000;2024-02-14T09:01:45;3.03;;;1.03;;
75772;SDS011;64381;0.000;0.000;2024-02-14T09:04:10;2.97;;;1.20;;
75772;SDS011;64381;0.000;0.000;2024-02-14T09:06:35;3.07;;;1.33;;
75772;SDS011;64381;0.000;0.000;2024-02-14T09:09:00;3.47;;;1.20;;
75772;SDS011;64381;0.000;0.000;2024-02-14T09:11:26;2.70;;;1.00;;
75772;SDS011;64381;0.000;0.000;2024-02-14T09:13:51;3.07;;;1.20;;
75772;SDS011;64381;0.000;0.000;2024-02-14T09:16:16;2.67;;;1.00;;
75772;SDS011;64381;0.000;0.000;2024-02-14T09:18:42;2.60;;;1.00;;
75772;SDS011;64381;0.000;0.000;2024-02-14T09:21:07;3.27;;;1.20;;
75772;SDS011;64381;0.000;0.000;2024-02-14T09:23:32;3.23;;;1.30;;
75772;SDS011;64381;0.000;0.000;2024-02-14T09:25:58;3.10;;;1.33;;
75772;SDS011;64381;0.000;0.000;2024-02-14T09:28:23;3.10;;;1.17;;
75772;SDS011;64381;0.000;0.000;2024-02-14T09:30:49;3.60;;;1.20;;
75772;SDS011;64381;0.000;0.000;2024-02-14T09:33:14;3.00;;;1.10;;
75772;SDS011;64381;0.000;0.000;2024-02-14T09:35:39;2.77;;;1.17;;
75772;SDS011;64381;0.000;0.000;2024-02-14T09:38:04;2.80;;;1.10;;
75772;SDS011;64381;0.000;0.000;2024-02-14T09:40:30;2.97;;;1.00;;
75772;SDS011;64381;0.000;0.000;2024-02-14T09:42:55;3.50;;;1.20;;
75772;SDS011;64381;0.000;0.000;2024-02-14T09:45:23;3.38;;;1.20;;
75772;SDS011;64381;0.000;0.000;2024-02-14T09:47:50;2.60;;;1.07;;
75772;SDS011;64381;0.000;0.000;2024-02-14T09:50:16;4.28;;;1.10;;
75772;SDS011;64381;0.000;0.000;2024-02-14T09:52:42;2.80;;;1.20;;
75772;SDS011;64381;0.000;0.000;2024-02-14T09:55:09;2.47;;;1.10;;
75772;SDS011;64381;0.000;0.000;2024-02-14T09:57:34;2.53;;;0.90;;
75772;SDS011;64381;0.000;0.000;2024-02-14T10:00:01;2.50;;;1.02;;
75772;SDS011;64381;0.000;0.000;2024-02-14T10:02:27;3.00;;;1.10;;
75772;SDS011;64381;0.000;0.000;2024-02-14T10:04:52;3.70;;;1.20;;
75772;SDS011;64381;0.000;0.000;2024-02-14T10:07:18;3.30;;;1.20;;
75772;SDS011;64381;0.000;0.000;2024-02-14T10:09:44;2.55;;;1.00;;
75772;SDS011;64381;0.000;0.000;2024-02-14T10:12:09;2.70;;;1.00;;
75772;SDS011;64381;0.000;0.000;2024-02-14T10:14:35;3.03;;;1.03;;
75772;SDS011;64381;0.000;0.000;2024-02-14T10:17:01;2.55;;;1.00;;
75772;SDS011;64381;0.000;0.000;2024-02-14T10:19:26;2.60;;;1.00;;
75772;SDS011;64381;0.000;0.000;2024-02-14T10:21:57;3.87;;;1.00;;
75772;SDS011;64381;0.000;0.000;2024-02-14T10:24:24;2.85;;;1.10;;
75772;SDS011;64381;0.000;0.000;2024-02-14T10:26:53;3.08;;;1.00;;
75772;SDS011;64381;0.000;0.000;2024-02-14T10:29:19;3.70;;;1.10;;
75772;SDS011;64381;0.000;0.000;2024-02-14T10:31:45;2.85;;;1.20;;
75772;SDS011;64381;0.000;0.000;2024-02-14T10:34:10;3.00;;;1.20;;
75772;SDS011;64381;0.000;0.000;2024-02-14T10:36:37;3.10;;;1.02;;
75772;SDS011;64381;0.000;0.000;2024-02-14T10:39:02;2.77;;;1.00;;
75772;SDS011;64381;0.000;0.000;2024-02-14T10:41:30;3.55;;;1.10;;
75772;SDS011;64381;0.000;0.000;2024-02-14T10:43:55;2.93;;;1.17;;
75772;SDS011;64381;0.000;0.000;2024-02-14T10:46:22;2.80;;;0.90;;
75772;SDS011;64381;0.000;0.000;2024-02-14T10:48:49;2.70;;;1.00;;
75772;SDS011;64381;0.000;0.000;2024-02-14T10:51:18;2.50;;;0.90;;
75772;SDS011;64381;0.000;0.000;2024-02-14T10:53:46;3.03;;;1.23;;
75772;SDS011;64381;0.000;0.000;2024-02-14T10:56:16;3.23;;;1.10;;
75772;SDS011;64381;0.000;0.000;2024-02-14T10:58:42;3.08;;;1.30;;
75772;SDS011;64381;0.000;0.000;2024-02-14T11:01:13;2.88;;;1.00;;
75772;SDS011;64381;0.000;0.000;2024-02-14T11:03:39;2.95;;;1.00;;
75772;SDS011;64381;0.000;0.000;2024-02-14T11:06:04;2.77;;;0.90;;
75772;SDS011;64381;0.000;0.000;2024-02-14T11:08:30;2.87;;;0.90;;
75772;SDS011;64381;0.000;0.000;2024-02-14T11:10:55;2.73;;;1.00;;
75772;SDS011;64381;0.000;0.000;2024-02-14T11:13:26;2.70;;;0.90;;
75772;SDS011;64381;0.000;0.000;2024-02-14T11:15:52;3.50;;;1.00;;
75772;SDS011;64381;0.000;0.000;2024-02-14T11:18:24;2.50;;;0.90;;
75772;SDS011;64381;0.000;0.000;2024-02-14T11:20:53;2.67;;;1.10;;
75772;SDS011;64381;0.000;0.000;2024-02-14T11:23:22;2.60;;;0.90;;
75772;SDS011;64381;0.000;0.000;2024-02-14T11:25:47;2.97;;;1.10;;
75772;SDS011;64381;0.000;0.000;2024-02-14T11:28:13;2.70;;;1.03;;
75772;SDS011;64381;0.000;0.000;2024-02-14T11:30:39;2.93;;;1.00;;
75772;SDS011;64381;0.000;0.000;2024-02-14T11:33:20;2.95;;;0.90;;
75772;SDS011;64381;0.000;0.000;2024-02-14T11:35:48;2.50;;;0.80;;
75772;SDS011;64381;0.000;0.000;2024-02-14T11:38:14;2.78;;;0.93;;
75772;SDS011;64381;0.000;0.000;2024-02-14T11:40:40;3.23;;;1.00;;
75772;SDS011;64381;0.000;0.000;2024-02-14T11:43:09;2.80;;;1.10;;
75772;SDS011;64381;0.000;0.000;2024-02-14T11:45:35;2.30;;;0.85;;
75772;SDS011;64381;0.000;0.000;2024-02-14T11:48:00;2.70;;;0.93;;
75772;SDS011;64381;0.000;0.000;2024-02-14T11:50:26;2.70;;;0.90;;
75772;SDS011;64381;0.000;0.000;2024-02-14T11:52:51;3.80;;;1.00;;
75772;SDS011;64381;0.000;0.000;2024-02-14T11:55:17;2.70;;;0.90;;
75772;SDS011;64381;0.000;0.000;2024-02-14T11:57:42;2.20;;;0.80;;
75772;SDS011;64381;0.000;0.000;2024-02-14T12:00:08;2.70;;;0.90;;
75772;SDS011;64381;0.000;0.000;2024-02-14T12:02:33;2.47;;;0.90;;
75772;SDS011;64381;0.000;0.000;2024-02-14T12:04:59;2.77;;;1.00;;
75772;SDS011;64381;0.000;0.000;2024-02-14T12:07:24;2.63;;;1.10;;
75772;SDS011;64381;0.000;0.000;2024-02-14T12:09:50;2.83;;;1.00;;
75772;SDS011;64381;0.000;0.000;2024-02-14T12:12:15;2.53;;;0.90;;
75772;SDS011;64381;0.000;0.000;2024-02-14T12:14:43;2.50;;;0.83;;
75772;SDS011;64381;0.000;0.000;2024-02-14T12:17:08;2.90;;;1.20;;
75772;SDS011;64381;0.000;0.000;2024-02-14T12:19:35;2.45;;;1.00;;
75772;SDS011;64381;0.000;0.000;2024-02-14T12:22:00;2.70;;;1.07;;
75772;SDS011;64381;0.000;0.000;2024-02-14T12:24:25;2.73;;;0.90;;
75772;SDS011;64381;0.000;0.000;2024-02-14T12:26:52;2.60;;;1.00;;
75772;SDS011;64381;0.000;0.000;2024-02-14T12:29:18;3.07;;;0.90;;
75772;SDS011;64381;0.000;0.000;2024-02-14T12:31:43;2.50;;;0.80;;
75772;SDS011;64381;0.000;0.000;2024-02-14T12:34:09;2.93;;;1.10;;
75772;SDS011;64381;0.000;0.000;2024-02-14T12:36:35;2.97;;;1.00;;
75772;SDS011;64381;0.000;0.000;2024-02-14T12:39:02;2.27;;;0.80;;
75772;SDS011;64381;0.000;0.000;2024-02-14T12:41:27;2.40;;;0.80;;
75772;SDS011;64381;0.000;0.000;2024-02-14T12:43:53;2.40;;;0.82;;
75772;SDS011;64381;0.000;0.000;2024-02-14T12:46:18;2.37;;;0.80;;
75772;SDS011;64381;0.000;0.000;2024-02-14T12:48:43;2.50;;;0.90;;
75772;SDS011;64381;0.000;0.000;2024-02-14T12:51:08;3.27;;;1.10;;
75772;SDS011;64381;0.000;0.000;2024-02-14T12:53:34;3.40;;;1.00;;
75772;SDS011;64381;0.000;0.000;2024-02-14T12:55:59;2.73;;;0.90;;
75772;SDS011;64381;0.000;0.000;2024-02-14T12:58:24;3.07;;;0.90;;
75772;SDS011;64381;0.000;0.000;2024-02-14T13:00:50;2.37;;;0.80;;
75772;SDS011;64381;0.000;0.000;2024-02-14T13:03:15;2.30;;;0.80;;
75772;SDS011;64381;0.000;0.000;2024-02-14T13:05:40;2.47;;;0.80;;
75772;SDS011;64381;0.000;0.000;2024-02-14T13:08:06;2.53;;;0.90;;
75772;SDS011;64381;0.000;0.000;2024-02-14T13:10:32;2.80;;;0.90;;
75772;SDS011;64381;0.000;0.000;2024-02-14T13:12:57;2.50;;;1.00;;
75772;SDS011;64381;0.000;0.000;2024-02-14T13:15:22;2.50;;;0.80;;
75772;SDS011;64381;0.000;0.000;2024-02-14T13:17:48;2.50;;;0.90;;
75772;SDS011;64381;0.000;0.000;2024-02-14T13:20:14;2.50;;;0.93;;
75772;SDS011;64381;0.000;0.000;2024-02-14T13:22:40;2.40;;;0.90;;
75772;SDS011;64381;0.000;0.000;2024-02-14T13:25:06;2.60;;;0.90;;
75772;SDS011;64381;0.000;0.000;2024-02-14T13:27:31;2.60;;;0.90;;
75772;SDS011;64381;0.000;0.000;2024-02-14T13:29:57;2.50;;;0.90;;
75772;SDS011;64381;0.000;0.000;2024-02-14T13:32:22;2.30;;;0.90;;
75772;SDS011;64381;0.000;0.000;2024-02-14T13:34:47;2.40;;;0.90;;
75772;SDS011;64381;0.000;0.000;2024-02-14T13:37:12;2.53;;;0.90;;
75772;SDS011;64381;0.000;0.000;2024-02-14T13:39:38;2.40;;;1.00;;
75772;SDS011;64381;0.000;0.000;2024-02-14T13:42:03;2.27;;;0.90;;
75772;SDS011;64381;0.000;0.000;2024-02-14T13:44:28;2.40;;;0.80;;
75772;SDS011;64381;0.000;0.000;2024-02-14T13:46:54;2.30;;;0.90;;
75772;SDS011;64381;0.000;0.000;2024-02-14T13:49:19;2.63;;;0.93;;
75772;SDS011;64381;0.000;0.000;2024-02-14T13:51:45;2.30;;;0.90;;
75772;SDS011;64381;0.000;0.000;2024-02-14T13:54:10;2.47;;;0.90;;
75772;SDS011;64381;0.000;0.000;2024-02-14T13:56:35;2.40;;;0.90;;
75772;SDS011;64381;0.000;0.000;2024-02-14T13:59:00;2.73;;;0.80;;
75772;SDS011;64381;0.000;0.000;2024-02-14T14:01:26;2.23;;;0.87;;
75772;SDS011;64381;0.000;0.000;2024-02-14T14:03:51;2.20;;;0.63;;
75772;SDS011;64381;0.000;0.000;2024-02-14T14:06:16;2.53;;;0.80;;
75772;SDS011;64381;0.000;0.000;2024-02-14T14:08:41;2.30;;;0.70;;
75772;SDS011;64381;0.000;0.000;2024-02-14T14:11:06;2.30;;;0.87;;
75772;SDS011;64381;0.000;0.000;2024-02-14T14:13:32;2.67;;;0.80;;
75772;SDS011;64381;0.000;0.000;2024-02-14T14:15:57;2.10;;;0.70;;
75772;SDS011;64381;0.000;0.000;2024-02-14T14:18:22;2.90;;;1.00;;
75772;SDS011;64381;0.000;0.000;2024-02-14T14:20:48;2.50;;;0.97;;
75772;SDS011;64381;0.000;0.000;2024-02-14T14:23:13;2.63;;;1.23;;
75772;SDS011;64381;0.000;0.000;2024-02-14T14:25:38;2.10;;;0.80;;
75772;SDS011;64381;0.000;0.000;2024-02-14T14:28:04;2.23;;;0.80;;
75772;SDS011;64381;0.000;0.000;2024-02-14T14:30:29;2.40;;;0.90;;
75772;SDS011;64381;0.000;0.000;2024-02-14T14:32:55;2.50;;;0.83;;
75772;SDS011;64381;0.000;0.000;2024-02-14T14:35:20;3.30;;;0.90;;
75772;SDS011;64381;0.000;0.000;2024-02-14T14:37:45;2.57;;;0.90;;
75772;SDS011;64381;0.000;0.000;2024-02-14T14:40:10;3.47;;;0.90;;
75772;SDS011;64381;0.000;0.000;2024-02-14T14:42:36;2.85;;;0.80;;
75772;SDS011;64381;0.000;0.000;2024-02-14T14:45:02;5.43;;;0.90;;
75772;SDS011;64381;0.000;0.000;2024-02-14T14:47:27;3.75;;;0.80;;
75772;SDS011;64381;0.000;0.000;2024-02-14T14:49:53;4.10;;;1.00;;